Terminal Aerodrome Forecast
Issued by NWS Twin Cities, MN

Home | Current Version | Previous Version | Graphics & Text | Print | Product List | Glossary On
Versions: 1 2 3 4 5 6 7 8 9 10 11 12 13 14 15 16 17 18 19 20 21 22 23 24 25
714
FTUS43 KMPX 211456 AAA
TAFMSP
TAF AMD
KMSP 211456Z 2115/2218 15010KT P6SM FEW120 SCT250
     FM220000 16007KT P6SM VCSH BKN045
     FM220500 17004KT P6SM BKN040
     FM221000 33004KT P6SM BKN030
     FM221600 35004KT P6SM BKN070=

USA.gov is the U.S. government's official web portal to all federal, state and local government web resources and services.